sensor_id;sensor_type;location;lat;lon;timestamp;temperature;humidity
21906;DHT22;11117;48.644;9.006;2023-04-29T00:00:01;11.90;99.90
21906;DHT22;11117;48.644;9.006;2023-04-29T00:02:27;11.90;99.90
21906;DHT22;11117;48.644;9.006;2023-04-29T00:04:53;11.90;99.90
21906;DHT22;11117;48.644;9.006;2023-04-29T00:07:18;11.90;99.90
21906;DHT22;11117;48.644;9.006;2023-04-29T00:09:44;11.90;99.90
21906;DHT22;11117;48.644;9.006;2023-04-29T00:12:09;11.90;99.90
21906;DHT22;11117;48.644;9.006;2023-04-29T00:14:35;11.90;99.90
21906;DHT22;11117;48.644;9.006;2023-04-29T00:17:00;11.90;99.90
21906;DHT22;11117;48.644;9.006;2023-04-29T00:19:26;11.90;99.90
21906;DHT22;11117;48.644;9.006;2023-04-29T00:21:51;11.90;99.90
21906;DHT22;11117;48.644;9.006;2023-04-29T00:24:17;11.80;99.90
21906;DHT22;11117;48.644;9.006;2023-04-29T00:26:42;11.70;99.90
21906;DHT22;11117;48.644;9.006;2023-04-29T00:29:10;11.70;99.90
21906;DHT22;11117;48.644;9.006;2023-04-29T00:31:35;11.70;99.90
21906;DHT22;11117;48.644;9.006;2023-04-29T00:34:01;11.70;99.90
21906;DHT22;11117;48.644;9.006;2023-04-29T00:36:26;11.60;99.90
21906;DHT22;11117;48.644;9.006;2023-04-29T00:38:52;11.60;99.90
21906;DHT22;11117;48.644;9.006;2023-04-29T00:41:17;11.60;99.90
21906;DHT22;11117;48.644;9.006;2023-04-29T00:43:43;11.60;99.90
21906;DHT22;11117;48.644;9.006;2023-04-29T00:46:09;11.50;99.90
21906;DHT22;11117;48.644;9.006;2023-04-29T00:48:34;11.50;99.90
21906;DHT22;11117;48.644;9.006;2023-04-29T00:51:00;11.50;99.90
21906;DHT22;11117;48.644;9.006;2023-04-29T00:53:26;11.40;99.90
21906;DHT22;11117;48.644;9.006;2023-04-29T00:55:52;11.40;99.90
21906;DHT22;11117;48.644;9.006;2023-04-29T00:58:18;11.40;99.90
21906;DHT22;11117;48.644;9.006;2023-04-29T01:00:43;11.40;99.90
21906;DHT22;11117;48.644;9.006;2023-04-29T01:03:09;11.30;99.90
21906;DHT22;11117;48.644;9.006;2023-04-29T01:05:35;11.20;99.90
21906;DHT22;11117;48.644;9.006;2023-04-29T01:08:28;11.20;99.90
21906;DHT22;11117;48.644;9.006;2023-04-29T01:11:08;11.20;99.90
21906;DHT22;11117;48.644;9.006;2023-04-29T01:13:58;11.20;99.90
21906;DHT22;11117;48.644;9.006;2023-04-29T01:16:28;11.20;99.90
21906;DHT22;11117;48.644;9.006;2023-04-29T01:18:57;11.10;99.90
21906;DHT22;11117;48.644;9.006;2023-04-29T01:21:26;11.10;99.90
21906;DHT22;11117;48.644;9.006;2023-04-29T01:23:51;11.10;99.90
21906;DHT22;11117;48.644;9.006;2023-04-29T01:26:17;11.00;99.90
21906;DHT22;11117;48.644;9.006;2023-04-29T01:28:49;11.00;99.90
21906;DHT22;11117;48.644;9.006;2023-04-29T01:31:24;11.10;99.90
21906;DHT22;11117;48.644;9.006;2023-04-29T01:34:12;11.00;99.90
21906;DHT22;11117;48.644;9.006;2023-04-29T01:39:32;11.00;99.90
21906;DHT22;11117;48.644;9.006;2023-04-29T01:42:17;11.00;99.90
21906;DHT22;11117;48.644;9.006;2023-04-29T01:44:46;11.00;99.90
21906;DHT22;11117;48.644;9.006;2023-04-29T01:47:13;10.90;99.90
21906;DHT22;11117;48.644;9.006;2023-04-29T01:49:39;10.90;99.90
21906;DHT22;11117;48.644;9.006;2023-04-29T01:52:05;10.90;99.90
21906;DHT22;11117;48.644;9.006;2023-04-29T01:54:30;10.80;99.90
21906;DHT22;11117;48.644;9.006;2023-04-29T01:56:56;10.90;99.90
21906;DHT22;11117;48.644;9.006;2023-04-29T01:59:22;10.80;99.90
21906;DHT22;11117;48.644;9.006;2023-04-29T02:01:47;10.80;99.90
21906;DHT22;11117;48.644;9.006;2023-04-29T02:04:13;10.80;99.90
21906;DHT22;11117;48.644;9.006;2023-04-29T02:06:38;10.80;99.90
21906;DHT22;11117;48.644;9.006;2023-04-29T02:09:04;10.80;99.90
21906;DHT22;11117;48.644;9.006;2023-04-29T02:11:29;10.80;99.90
21906;DHT22;11117;48.644;9.006;2023-04-29T02:13:55;10.80;99.90
21906;DHT22;11117;48.644;9.006;2023-04-29T02:16:20;10.80;99.90
21906;DHT22;11117;48.644;9.006;2023-04-29T02:18:46;10.80;99.90
21906;DHT22;11117;48.644;9.006;2023-04-29T02:21:11;10.70;99.90
21906;DHT22;11117;48.644;9.006;2023-04-29T02:23:37;10.70;99.90
21906;DHT22;11117;48.644;9.006;2023-04-29T02:26:03;10.70;99.90
21906;DHT22;11117;48.644;9.006;2023-04-29T02:28:28;10.70;99.90
21906;DHT22;11117;48.644;9.006;2023-04-29T02:30:54;10.70;99.90
21906;DHT22;11117;48.644;9.006;2023-04-29T02:33:20;10.70;99.90
21906;DHT22;11117;48.644;9.006;2023-04-29T02:35:45;10.70;99.90
21906;DHT22;11117;48.644;9.006;2023-04-29T02:38:11;10.70;99.90
21906;DHT22;11117;48.644;9.006;2023-04-29T02:40:54;10.70;99.90
21906;DHT22;11117;48.644;9.006;2023-04-29T02:43:20;10.60;99.90
21906;DHT22;11117;48.644;9.006;2023-04-29T02:45:45;10.60;99.90
21906;DHT22;11117;48.644;9.006;2023-04-29T02:48:11;10.60;99.90
21906;DHT22;11117;48.644;9.006;2023-04-29T02:50:36;10.50;99.90
21906;DHT22;11117;48.644;9.006;2023-04-29T02:53:02;10.50;99.90
21906;DHT22;11117;48.644;9.006;2023-04-29T02:55:27;10.50;99.90
21906;DHT22;11117;48.644;9.006;2023-04-29T02:57:53;10.50;99.90
21906;DHT22;11117;48.644;9.006;2023-04-29T03:00:18;10.50;99.90
21906;DHT22;11117;48.644;9.006;2023-04-29T03:02:44;10.50;99.90
21906;DHT22;11117;48.644;9.006;2023-04-29T03:05:10;10.50;99.90
21906;DHT22;11117;48.644;9.006;2023-04-29T03:07:35;10.40;99.90
21906;DHT22;11117;48.644;9.006;2023-04-29T03:10:01;10.40;99.90
21906;DHT22;11117;48.644;9.006;2023-04-29T03:12:26;10.40;99.90
21906;DHT22;11117;48.644;9.006;2023-04-29T03:14:52;10.40;99.90
21906;DHT22;11117;48.644;9.006;2023-04-29T03:17:17;10.30;99.90
21906;DHT22;11117;48.644;9.006;2023-04-29T03:19:43;10.20;99.90
21906;DHT22;11117;48.644;9.006;2023-04-29T03:22:08;10.20;99.90
21906;DHT22;11117;48.644;9.006;2023-04-29T03:24:34;10.10;99.90
21906;DHT22;11117;48.644;9.006;2023-04-29T03:26:59;10.20;99.90
21906;DHT22;11117;48.644;9.006;2023-04-29T03:29:25;10.10;99.90
21906;DHT22;11117;48.644;9.006;2023-04-29T03:31:51;10.10;99.90
21906;DHT22;11117;48.644;9.006;2023-04-29T03:34:16;10.10;99.90
21906;DHT22;11117;48.644;9.006;2023-04-29T03:36:42;10.10;99.90
21906;DHT22;11117;48.644;9.006;2023-04-29T03:39:07;10.10;99.90
21906;DHT22;11117;48.644;9.006;2023-04-29T03:41:33;10.00;99.90
21906;DHT22;11117;48.644;9.006;2023-04-29T03:43:58;10.00;99.90
21906;DHT22;11117;48.644;9.006;2023-04-29T03:46:24;10.10;99.90
21906;DHT22;11117;48.644;9.006;2023-04-29T03:48:49;10.10;99.90
21906;DHT22;11117;48.644;9.006;2023-04-29T03:51:15;10.10;99.90
21906;DHT22;11117;48.644;9.006;2023-04-29T03:53:40;10.10;99.90
21906;DHT22;11117;48.644;9.006;2023-04-29T03:56:06;10.10;99.90
21906;DHT22;11117;48.644;9.006;2023-04-29T03:58:32;10.00;99.90
21906;DHT22;11117;48.644;9.006;2023-04-29T04:00:57;10.10;99.90
21906;DHT22;11117;48.644;9.006;2023-04-29T04:03:23;10.00;99.90
21906;DHT22;11117;48.644;9.006;2023-04-29T04:05:48;9.90;99.90
21906;DHT22;11117;48.644;9.006;2023-04-29T04:08:14;9.90;99.90
21906;DHT22;11117;48.644;9.006;2023-04-29T04:10:39;9.90;99.90
21906;DHT22;11117;48.644;9.006;2023-04-29T04:13:05;9.80;99.90
21906;DHT22;11117;48.644;9.006;2023-04-29T04:15:30;9.70;99.90
21906;DHT22;11117;48.644;9.006;2023-04-29T04:17:56;9.70;99.90
21906;DHT22;11117;48.644;9.006;2023-04-29T04:20:21;9.60;99.90
21906;DHT22;11117;48.644;9.006;2023-04-29T04:22:49;9.60;99.90
21906;DHT22;11117;48.644;9.006;2023-04-29T04:25:15;9.50;99.90
21906;DHT22;11117;48.644;9.006;2023-04-29T04:27:41;9.60;99.90
21906;DHT22;11117;48.644;9.006;2023-04-29T04:30:06;9.60;99.90
21906;DHT22;11117;48.644;9.006;2023-04-29T04:32:32;9.60;99.90
21906;DHT22;11117;48.644;9.006;2023-04-29T04:34:58;9.70;99.90
21906;DHT22;11117;48.644;9.006;2023-04-29T04:37:23;9.70;99.90
21906;DHT22;11117;48.644;9.006;2023-04-29T04:39:49;9.70;99.90
21906;DHT22;11117;48.644;9.006;2023-04-29T04:42:14;9.60;99.90
21906;DHT22;11117;48.644;9.006;2023-04-29T04:44:40;9.70;99.90
21906;DHT22;11117;48.644;9.006;2023-04-29T04:47:05;9.70;99.90
21906;DHT22;11117;48.644;9.006;2023-04-29T04:49:31;9.70;99.90
21906;DHT22;11117;48.644;9.006;2023-04-29T04:51:56;9.80;99.90
21906;DHT22;11117;48.644;9.006;2023-04-29T04:54:22;9.90;99.90
21906;DHT22;11117;48.644;9.006;2023-04-29T04:56:47;10.00;99.90
21906;DHT22;11117;48.644;9.006;2023-04-29T04:59:13;10.20;99.90
21906;DHT22;11117;48.644;9.006;2023-04-29T05:01:38;10.40;99.90
21906;DHT22;11117;48.644;9.006;2023-04-29T05:04:04;10.50;99.90
21906;DHT22;11117;48.644;9.006;2023-04-29T05:06:33;10.60;99.90
21906;DHT22;11117;48.644;9.006;2023-04-29T05:09:01;10.80;99.90
21906;DHT22;11117;48.644;9.006;2023-04-29T05:11:27;11.00;99.90
21906;DHT22;11117;48.644;9.006;2023-04-29T05:13:53;11.10;99.90
21906;DHT22;11117;48.644;9.006;2023-04-29T05:16:18;11.20;99.90
21906;DHT22;11117;48.644;9.006;2023-04-29T05:18:44;11.30;99.90
21906;DHT22;11117;48.644;9.006;2023-04-29T05:21:10;11.40;99.90
21906;DHT22;11117;48.644;9.006;2023-04-29T05:23:35;11.50;99.90
21906;DHT22;11117;48.644;9.006;2023-04-29T05:26:01;11.50;99.90
21906;DHT22;11117;48.644;9.006;2023-04-29T05:28:26;11.60;99.90
21906;DHT22;11117;48.644;9.006;2023-04-29T05:30:52;11.70;99.90
21906;DHT22;11117;48.644;9.006;2023-04-29T05:33:18;11.90;99.90
21906;DHT22;11117;48.644;9.006;2023-04-29T05:35:43;11.90;99.90
21906;DHT22;11117;48.644;9.006;2023-04-29T05:38:09;12.00;99.90
21906;DHT22;11117;48.644;9.006;2023-04-29T05:40:34;12.10;99.90
21906;DHT22;11117;48.644;9.006;2023-04-29T05:43:00;12.20;99.90
21906;DHT22;11117;48.644;9.006;2023-04-29T05:45:25;12.40;99.90
21906;DHT22;11117;48.644;9.006;2023-04-29T05:47:52;12.60;99.90
21906;DHT22;11117;48.644;9.006;2023-04-29T05:50:18;12.80;99.90
21906;DHT22;11117;48.644;9.006;2023-04-29T05:52:43;13.10;99.90
21906;DHT22;11117;48.644;9.006;2023-04-29T05:55:09;13.30;99.90
21906;DHT22;11117;48.644;9.006;2023-04-29T05:57:34;13.40;99.90
21906;DHT22;11117;48.644;9.006;2023-04-29T06:00:00;13.40;99.90
21906;DHT22;11117;48.644;9.006;2023-04-29T06:02:26;13.50;99.90
21906;DHT22;11117;48.644;9.006;2023-04-29T06:04:51;13.60;99.90
21906;DHT22;11117;48.644;9.006;2023-04-29T06:07:17;13.70;99.90
21906;DHT22;11117;48.644;9.006;2023-04-29T06:09:43;13.60;99.90
21906;DHT22;11117;48.644;9.006;2023-04-29T06:12:09;13.60;99.90
21906;DHT22;11117;48.644;9.006;2023-04-29T06:14:35;13.50;99.90
21906;DHT22;11117;48.644;9.006;2023-04-29T06:17:00;13.50;99.90
21906;DHT22;11117;48.644;9.006;2023-04-29T06:19:26;13.40;99.90
21906;DHT22;11117;48.644;9.006;2023-04-29T06:21:51;13.50;99.90
21906;DHT22;11117;48.644;9.006;2023-04-29T06:24:17;13.60;99.90
21906;DHT22;11117;48.644;9.006;2023-04-29T06:26:42;13.60;99.90
21906;DHT22;11117;48.644;9.006;2023-04-29T06:29:08;13.50;99.90
21906;DHT22;11117;48.644;9.006;2023-04-29T06:31:33;13.50;99.90
21906;DHT22;11117;48.644;9.006;2023-04-29T06:33:59;13.50;99.90
21906;DHT22;11117;48.644;9.006;2023-04-29T06:36:25;13.40;99.90
21906;DHT22;11117;48.644;9.006;2023-04-29T06:38:50;13.30;99.90
21906;DHT22;11117;48.644;9.006;2023-04-29T06:41:16;13.20;99.90
21906;DHT22;11117;48.644;9.006;2023-04-29T06:43:41;13.00;99.90
21906;DHT22;11117;48.644;9.006;2023-04-29T06:46:07;12.90;99.90
21906;DHT22;11117;48.644;9.006;2023-04-29T06:48:32;12.90;99.90
21906;DHT22;11117;48.644;9.006;2023-04-29T06:50:58;12.80;99.90
21906;DHT22;11117;48.644;9.006;2023-04-29T06:53:23;13.00;99.90
21906;DHT22;11117;48.644;9.006;2023-04-29T06:55:49;13.30;99.90
21906;DHT22;11117;48.644;9.006;2023-04-29T06:58:16;13.30;99.90
21906;DHT22;11117;48.644;9.006;2023-04-29T07:00:47;13.40;99.90
21906;DHT22;11117;48.644;9.006;2023-04-29T07:03:13;13.30;99.90
21906;DHT22;11117;48.644;9.006;2023-04-29T07:05:39;13.40;99.90
21906;DHT22;11117;48.644;9.006;2023-04-29T07:08:05;13.40;99.90
21906;DHT22;11117;48.644;9.006;2023-04-29T07:10:30;13.30;99.90
21906;DHT22;11117;48.644;9.006;2023-04-29T07:12:56;13.20;99.90
21906;DHT22;11117;48.644;9.006;2023-04-29T07:15:21;13.30;99.90
21906;DHT22;11117;48.644;9.006;2023-04-29T07:17:49;13.30;99.90
21906;DHT22;11117;48.644;9.006;2023-04-29T07:20:15;13.30;99.90
21906;DHT22;11117;48.644;9.006;2023-04-29T07:22:41;13.40;99.90
21906;DHT22;11117;48.644;9.006;2023-04-29T07:25:06;13.50;99.90
21906;DHT22;11117;48.644;9.006;2023-04-29T07:27:33;13.70;99.90
21906;DHT22;11117;48.644;9.006;2023-04-29T07:29:59;13.80;99.90
21906;DHT22;11117;48.644;9.006;2023-04-29T07:32:25;13.80;99.90
21906;DHT22;11117;48.644;9.006;2023-04-29T07:34:51;14.20;99.90
21906;DHT22;11117;48.644;9.006;2023-04-29T07:37:18;14.20;99.90
21906;DHT22;11117;48.644;9.006;2023-04-29T07:39:43;14.20;99.90
21906;DHT22;11117;48.644;9.006;2023-04-29T07:42:09;14.60;99.90
21906;DHT22;11117;48.644;9.006;2023-04-29T07:44:34;14.60;99.90
21906;DHT22;11117;48.644;9.006;2023-04-29T07:47:00;14.30;99.90
21906;DHT22;11117;48.644;9.006;2023-04-29T07:49:26;14.50;99.90
21906;DHT22;11117;48.644;9.006;2023-04-29T07:51:52;14.40;99.90
21906;DHT22;11117;48.644;9.006;2023-04-29T07:54:17;14.20;99.90
21906;DHT22;11117;48.644;9.006;2023-04-29T07:56:43;14.30;99.90
21906;DHT22;11117;48.644;9.006;2023-04-29T07:59:08;14.30;99.90
21906;DHT22;11117;48.644;9.006;2023-04-29T08:01:34;14.40;99.90
21906;DHT22;11117;48.644;9.006;2023-04-29T08:03:59;14.60;99.90
21906;DHT22;11117;48.644;9.006;2023-04-29T08:06:25;14.80;99.90
21906;DHT22;11117;48.644;9.006;2023-04-29T08:08:50;15.20;99.90
21906;DHT22;11117;48.644;9.006;2023-04-29T08:11:17;15.10;99.90
21906;DHT22;11117;48.644;9.006;2023-04-29T08:13:43;15.20;99.90
21906;DHT22;11117;48.644;9.006;2023-04-29T08:16:08;15.30;99.90
21906;DHT22;11117;48.644;9.006;2023-04-29T08:18:34;15.60;99.90
21906;DHT22;11117;48.644;9.006;2023-04-29T08:20:59;15.50;99.90
21906;DHT22;11117;48.644;9.006;2023-04-29T08:23:25;15.60;99.90
21906;DHT22;11117;48.644;9.006;2023-04-29T08:25:50;15.70;99.90
21906;DHT22;11117;48.644;9.006;2023-04-29T08:28:16;15.70;99.90
21906;DHT22;11117;48.644;9.006;2023-04-29T08:30:42;15.50;99.90
21906;DHT22;11117;48.644;9.006;2023-04-29T08:33:08;15.40;99.90
21906;DHT22;11117;48.644;9.006;2023-04-29T08:35:34;15.50;99.90
21906;DHT22;11117;48.644;9.006;2023-04-29T08:37:59;16.00;99.90
21906;DHT22;11117;48.644;9.006;2023-04-29T08:40:25;16.10;99.90
21906;DHT22;11117;48.644;9.006;2023-04-29T08:42:53;16.00;99.90
21906;DHT22;11117;48.644;9.006;2023-04-29T08:45:19;16.50;99.90
21906;DHT22;11117;48.644;9.006;2023-04-29T08:47:51;16.50;99.90
21906;DHT22;11117;48.644;9.006;2023-04-29T08:50:17;16.40;99.90
21906;DHT22;11117;48.644;9.006;2023-04-29T08:52:43;16.70;99.90
21906;DHT22;11117;48.644;9.006;2023-04-29T08:55:08;17.00;99.90
21906;DHT22;11117;48.644;9.006;2023-04-29T08:57:35;17.00;99.90
21906;DHT22;11117;48.644;9.006;2023-04-29T09:00:02;17.10;99.90
21906;DHT22;11117;48.644;9.006;2023-04-29T09:02:28;16.70;99.90
21906;DHT22;11117;48.644;9.006;2023-04-29T09:05:23;16.30;99.90
21906;DHT22;11117;48.644;9.006;2023-04-29T09:07:51;16.40;99.90
21906;DHT22;11117;48.644;9.006;2023-04-29T09:10:17;16.60;99.90
21906;DHT22;11117;48.644;9.006;2023-04-29T09:12:43;16.70;99.90
21906;DHT22;11117;48.644;9.006;2023-04-29T09:15:09;16.50;99.90
21906;DHT22;11117;48.644;9.006;2023-04-29T09:17:42;16.80;99.90
21906;DHT22;11117;48.644;9.006;2023-04-29T09:22:51;16.50;99.90
21906;DHT22;11117;48.644;9.006;2023-04-29T09:25:17;16.40;99.90
21906;DHT22;11117;48.644;9.006;2023-04-29T09:27:42;16.30;99.90
21906;DHT22;11117;48.644;9.006;2023-04-29T09:30:09;16.50;99.90
21906;DHT22;11117;48.644;9.006;2023-04-29T09:32:34;16.60;99.90
21906;DHT22;11117;48.644;9.006;2023-04-29T09:37:49;16.80;99.90
21906;DHT22;11117;48.644;9.006;2023-04-29T09:40:32;16.40;99.90
21906;DHT22;11117;48.644;9.006;2023-04-29T09:42:58;16.60;99.90
21906;DHT22;11117;48.644;9.006;2023-04-29T09:45:37;16.70;99.90
21906;DHT22;11117;48.644;9.006;2023-04-29T09:48:03;16.60;99.90
21906;DHT22;11117;48.644;9.006;2023-04-29T09:50:30;16.60;99.90
21906;DHT22;11117;48.644;9.006;2023-04-29T09:52:56;16.70;99.90
21906;DHT22;11117;48.644;9.006;2023-04-29T09:55:21;16.70;99.90
21906;DHT22;11117;48.644;9.006;2023-04-29T09:57:53;16.90;99.90
21906;DHT22;11117;48.644;9.006;2023-04-29T10:00:18;16.60;99.90
21906;DHT22;11117;48.644;9.006;2023-04-29T10:02:48;16.30;99.90
21906;DHT22;11117;48.644;9.006;2023-04-29T10:05:14;16.10;99.90
21906;DHT22;11117;48.644;9.006;2023-04-29T10:07:40;16.10;99.90
21906;DHT22;11117;48.644;9.006;2023-04-29T10:10:06;15.80;99.90
21906;DHT22;11117;48.644;9.006;2023-04-29T10:12:36;16.00;99.90
21906;DHT22;11117;48.644;9.006;2023-04-29T10:17:48;16.20;99.90
21906;DHT22;11117;48.644;9.006;2023-04-29T10:20:21;16.30;99.90
21906;DHT22;11117;48.644;9.006;2023-04-29T10:22:54;16.20;99.90
21906;DHT22;11117;48.644;9.006;2023-04-29T10:25:21;16.50;99.90
21906;DHT22;11117;48.644;9.006;2023-04-29T10:27:48;16.50;99.90
21906;DHT22;11117;48.644;9.006;2023-04-29T10:30:15;16.60;99.90
21906;DHT22;11117;48.644;9.006;2023-04-29T10:32:41;16.90;99.90
21906;DHT22;11117;48.644;9.006;2023-04-29T10:35:12;16.50;99.90
21906;DHT22;11117;48.644;9.006;2023-04-29T10:37:39;16.30;99.90
21906;DHT22;11117;48.644;9.006;2023-04-29T10:40:27;16.40;99.90
21906;DHT22;11117;48.644;9.006;2023-04-29T10:42:54;16.50;99.90
21906;DHT22;11117;48.644;9.006;2023-04-29T10:45:20;16.60;99.90
21906;DHT22;11117;48.644;9.006;2023-04-29T10:53:03;16.60;99.90
21906;DHT22;11117;48.644;9.006;2023-04-29T10:55:31;16.60;99.90
21906;DHT22;11117;48.644;9.006;2023-04-29T10:58:00;16.60;99.90
21906;DHT22;11117;48.644;9.006;2023-04-29T11:00:28;16.90;99.90
21906;DHT22;11117;48.644;9.006;2023-04-29T11:02:58;16.90;99.90
21906;DHT22;11117;48.644;9.006;2023-04-29T11:05:31;17.00;99.90
21906;DHT22;11117;48.644;9.006;2023-04-29T11:08:09;17.30;99.90
21906;DHT22;11117;48.644;9.006;2023-04-29T11:10:36;17.10;99.90
21906;DHT22;11117;48.644;9.006;2023-04-29T11:13:26;16.90;99.90
21906;DHT22;11117;48.644;9.006;2023-04-29T11:16:14;17.00;99.90
21906;DHT22;11117;48.644;9.006;2023-04-29T11:19:03;17.20;99.90
21906;DHT22;11117;48.644;9.006;2023-04-29T11:21:28;16.90;99.90
21906;DHT22;11117;48.644;9.006;2023-04-29T11:23:54;16.90;99.90
21906;DHT22;11117;48.644;9.006;2023-04-29T11:26:20;17.10;99.90
21906;DHT22;11117;48.644;9.006;2023-04-29T11:28:46;16.80;99.90
21906;DHT22;11117;48.644;9.006;2023-04-29T11:31:12;17.10;99.90
21906;DHT22;11117;48.644;9.006;2023-04-29T11:33:38;17.10;99.90
21906;DHT22;11117;48.644;9.006;2023-04-29T11:36:03;17.30;99.90
21906;DHT22;11117;48.644;9.006;2023-04-29T11:38:30;17.50;99.90
21906;DHT22;11117;48.644;9.006;2023-04-29T11:40:56;16.80;99.90
21906;DHT22;11117;48.644;9.006;2023-04-29T11:43:23;16.70;99.90
21906;DHT22;11117;48.644;9.006;2023-04-29T11:45:50;16.40;99.90
21906;DHT22;11117;48.644;9.006;2023-04-29T11:48:22;16.40;99.90
21906;DHT22;11117;48.644;9.006;2023-04-29T11:50:49;16.50;99.90
21906;DHT22;11117;48.644;9.006;2023-04-29T11:53:18;16.40;99.90
21906;DHT22;11117;48.644;9.006;2023-04-29T11:55:44;16.50;99.90
21906;DHT22;11117;48.644;9.006;2023-04-29T11:58:11;16.50;99.90
21906;DHT22;11117;48.644;9.006;2023-04-29T12:00:37;16.20;99.90
21906;DHT22;11117;48.644;9.006;2023-04-29T12:03:19;16.10;99.90
21906;DHT22;11117;48.644;9.006;2023-04-29T12:05:54;16.10;99.90
21906;DHT22;11117;48.644;9.006;2023-04-29T12:10:49;16.00;99.90
21906;DHT22;11117;48.644;9.006;2023-04-29T12:13:16;16.20;99.90
21906;DHT22;11117;48.644;9.006;2023-04-29T12:15:42;16.30;99.90
21906;DHT22;11117;48.644;9.006;2023-04-29T12:18:08;16.20;99.90
21906;DHT22;11117;48.644;9.006;2023-04-29T12:20:34;16.30;99.90
21906;DHT22;11117;48.644;9.006;2023-04-29T12:23:13;16.40;99.90
21906;DHT22;11117;48.644;9.006;2023-04-29T12:25:39;16.60;99.90
21906;DHT22;11117;48.644;9.006;2023-04-29T12:28:04;16.80;99.90
21906;DHT22;11117;48.644;9.006;2023-04-29T12:30:33;17.00;99.90
21906;DHT22;11117;48.644;9.006;2023-04-29T12:32:59;17.20;99.90
21906;DHT22;11117;48.644;9.006;2023-04-29T12:35:24;17.70;99.90
21906;DHT22;11117;48.644;9.006;2023-04-29T12:37:53;17.50;99.90
21906;DHT22;11117;48.644;9.006;2023-04-29T12:40:19;17.30;99.90
21906;DHT22;11117;48.644;9.006;2023-04-29T12:42:52;17.20;99.90
21906;DHT22;11117;48.644;9.006;2023-04-29T12:45:29;17.00;99.90
21906;DHT22;11117;48.644;9.006;2023-04-29T12:47:58;17.10;99.90
21906;DHT22;11117;48.644;9.006;2023-04-29T12:50:31;17.00;99.90
21906;DHT22;11117;48.644;9.006;2023-04-29T12:52:57;16.80;99.90
21906;DHT22;11117;48.644;9.006;2023-04-29T12:55:23;16.70;99.90
21906;DHT22;11117;48.644;9.006;2023-04-29T12:57:51;17.00;99.90
21906;DHT22;11117;48.644;9.006;2023-04-29T13:00:16;17.00;99.90
21906;DHT22;11117;48.644;9.006;2023-04-29T13:02:42;17.20;99.90
21906;DHT22;11117;48.644;9.006;2023-04-29T13:05:08;17.50;99.90
21906;DHT22;11117;48.644;9.006;2023-04-29T13:07:33;17.90;99.90
21906;DHT22;11117;48.644;9.006;2023-04-29T13:09:59;17.90;99.90
21906;DHT22;11117;48.644;9.006;2023-04-29T13:12:24;17.90;99.90
21906;DHT22;11117;48.644;9.006;2023-04-29T13:14:50;17.90;99.90
21906;DHT22;11117;48.644;9.006;2023-04-29T13:17:15;17.50;99.90
21906;DHT22;11117;48.644;9.006;2023-04-29T13:19:41;17.10;99.90
21906;DHT22;11117;48.644;9.006;2023-04-29T13:22:06;16.90;99.90
21906;DHT22;11117;48.644;9.006;2023-04-29T13:24:32;16.70;99.90
21906;DHT22;11117;48.644;9.006;2023-04-29T13:26:57;16.50;99.90
21906;DHT22;11117;48.644;9.006;2023-04-29T13:29:23;16.40;99.90
21906;DHT22;11117;48.644;9.006;2023-04-29T13:31:48;16.10;99.90
21906;DHT22;11117;48.644;9.006;2023-04-29T13:34:14;16.10;99.90
21906;DHT22;11117;48.644;9.006;2023-04-29T13:36:39;16.30;99.90
21906;DHT22;11117;48.644;9.006;2023-04-29T13:39:05;16.20;99.90
21906;DHT22;11117;48.644;9.006;2023-04-29T13:41:30;16.00;99.90
21906;DHT22;11117;48.644;9.006;2023-04-29T13:43:56;15.80;99.90
21906;DHT22;11117;48.644;9.006;2023-04-29T13:46:21;15.80;99.90
21906;DHT22;11117;48.644;9.006;2023-04-29T13:48:47;15.90;99.90
21906;DHT22;11117;48.644;9.006;2023-04-29T13:51:12;15.90;99.90
21906;DHT22;11117;48.644;9.006;2023-04-29T13:53:38;15.80;99.90
21906;DHT22;11117;48.644;9.006;2023-04-29T13:56:04;15.50;99.90
21906;DHT22;11117;48.644;9.006;2023-04-29T13:58:30;15.70;99.90
21906;DHT22;11117;48.644;9.006;2023-04-29T14:00:55;15.80;99.90
21906;DHT22;11117;48.644;9.006;2023-04-29T14:03:21;15.70;99.90
21906;DHT22;11117;48.644;9.006;2023-04-29T14:05:46;15.70;99.90
21906;DHT22;11117;48.644;9.006;2023-04-29T14:08:12;15.50;99.90
21906;DHT22;11117;48.644;9.006;2023-04-29T14:10:37;15.60;99.90
21906;DHT22;11117;48.644;9.006;2023-04-29T14:13:03;15.30;99.90
21906;DHT22;11117;48.644;9.006;2023-04-29T14:15:28;15.40;99.90
21906;DHT22;11117;48.644;9.006;2023-04-29T14:17:54;15.50;99.90
21906;DHT22;11117;48.644;9.006;2023-04-29T14:20:19;15.50;99.90
21906;DHT22;11117;48.644;9.006;2023-04-29T14:22:45;15.30;99.90
21906;DHT22;11117;48.644;9.006;2023-04-29T14:25:10;15.30;99.90
21906;DHT22;11117;48.644;9.006;2023-04-29T14:27:36;15.30;99.90
21906;DHT22;11117;48.644;9.006;2023-04-29T14:30:01;15.10;99.90
21906;DHT22;11117;48.644;9.006;2023-04-29T14:32:27;15.30;99.90
21906;DHT22;11117;48.644;9.006;2023-04-29T14:34:52;15.10;99.90
21906;DHT22;11117;48.644;9.006;2023-04-29T14:37:18;15.30;99.90
21906;DHT22;11117;48.644;9.006;2023-04-29T14:39:43;15.40;99.90
21906;DHT22;11117;48.644;9.006;2023-04-29T14:42:09;15.60;99.90
21906;DHT22;11117;48.644;9.006;2023-04-29T14:44:35;15.40;99.90
21906;DHT22;11117;48.644;9.006;2023-04-29T14:47:00;15.40;99.90
21906;DHT22;11117;48.644;9.006;2023-04-29T14:49:26;15.30;99.90
21906;DHT22;11117;48.644;9.006;2023-04-29T14:51:51;15.50;99.90
21906;DHT22;11117;48.644;9.006;2023-04-29T14:54:17;15.30;99.90
21906;DHT22;11117;48.644;9.006;2023-04-29T14:56:42;15.10;99.90
21906;DHT22;11117;48.644;9.006;2023-04-29T14:59:08;15.20;99.90
21906;DHT22;11117;48.644;9.006;2023-04-29T15:01:34;15.00;99.90
21906;DHT22;11117;48.644;9.006;2023-04-29T15:03:59;14.80;99.90
21906;DHT22;11117;48.644;9.006;2023-04-29T15:06:25;14.70;99.90
21906;DHT22;11117;48.644;9.006;2023-04-29T15:08:51;14.70;99.90
21906;DHT22;11117;48.644;9.006;2023-04-29T15:11:16;14.50;99.90
21906;DHT22;11117;48.644;9.006;2023-04-29T15:13:42;14.50;99.90
21906;DHT22;11117;48.644;9.006;2023-04-29T15:16:07;14.40;99.90
21906;DHT22;11117;48.644;9.006;2023-04-29T15:18:33;14.40;99.90
21906;DHT22;11117;48.644;9.006;2023-04-29T15:20:59;14.60;99.90
21906;DHT22;11117;48.644;9.006;2023-04-29T15:23:24;14.50;99.90
21906;DHT22;11117;48.644;9.006;2023-04-29T15:25:50;14.60;99.90
21906;DHT22;11117;48.644;9.006;2023-04-29T15:28:15;14.60;99.90
21906;DHT22;11117;48.644;9.006;2023-04-29T15:30:41;14.50;99.90
21906;DHT22;11117;48.644;9.006;2023-04-29T15:33:06;14.40;99.90
21906;DHT22;11117;48.644;9.006;2023-04-29T15:35:33;14.40;99.90
21906;DHT22;11117;48.644;9.006;2023-04-29T15:37:59;14.20;99.90
21906;DHT22;11117;48.644;9.006;2023-04-29T15:40:24;14.20;99.90
21906;DHT22;11117;48.644;9.006;2023-04-29T15:42:51;14.20;99.90
21906;DHT22;11117;48.644;9.006;2023-04-29T15:45:16;14.30;99.90
21906;DHT22;11117;48.644;9.006;2023-04-29T15:47:42;14.10;99.90